sensor_id;sensor_type;location;lat;lon;timestamp;temperature;humidity
67354;SHT30;54238;52.278;21.056;2022-12-10T00:00:08;3.56;73.47
67354;SHT30;54238;52.278;21.056;2022-12-10T00:02:59;3.54;73.53
67354;SHT30;54238;52.278;21.056;2022-12-10T00:05:33;3.52;73.63
67354;SHT30;54238;52.278;21.056;2022-12-10T00:08:02;3.52;73.72
67354;SHT30;54238;52.278;21.056;2022-12-10T00:10:38;3.52;73.72
67354;SHT30;54238;52.278;21.056;2022-12-10T00:13:06;3.52;73.74
67354;SHT30;54238;52.278;21.056;2022-12-10T00:15:34;3.60;73.59
67354;SHT30;54238;52.278;21.056;2022-12-10T00:18:06;3.71;73.41
67354;SHT30;54238;52.278;21.056;2022-12-10T00:20:35;3.86;73.25
67354;SHT30;54238;52.278;21.056;2022-12-10T00:23:08;3.99;72.85
67354;SHT30;54238;52.278;21.056;2022-12-10T00:25:37;4.05;72.76
67354;SHT30;54238;52.278;21.056;2022-12-10T00:28:09;4.07;72.68
67354;SHT30;54238;52.278;21.056;2022-12-10T00:30:36;4.01;72.62
67354;SHT30;54238;52.278;21.056;2022-12-10T00:33:03;3.91;72.76
67354;SHT30;54238;52.278;21.056;2022-12-10T00:35:34;3.85;72.96
67354;SHT30;54238;52.278;21.056;2022-12-10T00:38:10;3.79;73.03
67354;SHT30;54238;52.278;21.056;2022-12-10T00:40:37;3.71;73.14
67354;SHT30;54238;52.278;21.056;2022-12-10T00:43:06;3.75;73.16
67354;SHT30;54238;52.278;21.056;2022-12-10T00:45:37;3.80;72.94
67354;SHT30;54238;52.278;21.056;2022-12-10T00:48:07;3.86;72.90
67354;SHT30;54238;52.278;21.056;2022-12-10T00:50:36;3.95;72.88
67354;SHT30;54238;52.278;21.056;2022-12-10T00:53:08;4.03;72.86
67354;SHT30;54238;52.278;21.056;2022-12-10T00:55:35;4.03;72.64
67354;SHT30;54238;52.278;21.056;2022-12-10T00:58:02;3.98;72.72
67354;SHT30;54238;52.278;21.056;2022-12-10T01:00:32;3.94;72.75
67354;SHT30;54238;52.278;21.056;2022-12-10T01:03:03;3.84;72.89
67354;SHT30;54238;52.278;21.056;2022-12-10T01:05:35;3.76;73.06
67354;SHT30;54238;52.278;21.056;2022-12-10T01:08:02;3.65;73.22
67354;SHT30;54238;52.278;21.056;2022-12-10T01:10:31;3.61;73.41
67354;SHT30;54238;52.278;21.056;2022-12-10T01:12:59;3.69;73.45
67354;SHT30;54238;52.278;21.056;2022-12-10T01:15:28;3.83;73.23
67354;SHT30;54238;52.278;21.056;2022-12-10T01:17:58;3.91;73.00
67354;SHT30;54238;52.278;21.056;2022-12-10T01:20:34;3.99;73.01
67354;SHT30;54238;52.278;21.056;2022-12-10T01:23:05;4.01;72.93
67354;SHT30;54238;52.278;21.056;2022-12-10T01:25:34;4.00;72.94
67354;SHT30;54238;52.278;21.056;2022-12-10T01:28:06;3.94;72.94
67354;SHT30;54238;52.278;21.056;2022-12-10T01:33:33;3.73;73.22
67354;SHT30;54238;52.278;21.056;2022-12-10T01:36:04;3.68;73.40
67354;SHT30;54238;52.278;21.056;2022-12-10T01:38:54;3.62;73.49
67354;SHT30;54238;52.278;21.056;2022-12-10T01:41:41;3.66;73.49
67354;SHT30;54238;52.278;21.056;2022-12-10T01:46:42;3.85;73.12
67354;SHT30;54238;52.278;21.056;2022-12-10T01:49:26;3.94;72.97
67354;SHT30;54238;52.278;21.056;2022-12-10T01:52:03;3.99;72.80
67354;SHT30;54238;52.278;21.056;2022-12-10T01:54:40;3.97;72.80
67354;SHT30;54238;52.278;21.056;2022-12-10T01:57:16;3.90;72.82
67354;SHT30;54238;52.278;21.056;2022-12-10T01:59:58;3.84;73.01
67354;SHT30;54238;52.278;21.056;2022-12-10T02:05:20;3.70;73.04
67354;SHT30;54238;52.278;21.056;2022-12-10T02:11:11;3.81;73.24
67354;SHT30;54238;52.278;21.056;2022-12-10T02:14:21;3.94;72.87
67354;SHT30;54238;52.278;21.056;2022-12-10T02:16:58;4.04;72.71
67354;SHT30;54238;52.278;21.056;2022-12-10T02:22:34;4.01;72.73
67354;SHT30;54238;52.278;21.056;2022-12-10T02:25:11;3.96;72.77
67354;SHT30;54238;52.278;21.056;2022-12-10T02:27:50;3.90;72.86
67354;SHT30;54238;52.278;21.056;2022-12-10T02:30:25;3.82;72.94
67354;SHT30;54238;52.278;21.056;2022-12-10T02:32:52;3.74;73.10
67354;SHT30;54238;52.278;21.056;2022-12-10T02:35:26;3.66;73.25
67354;SHT30;54238;52.278;21.056;2022-12-10T02:38:11;3.66;73.33
67354;SHT30;54238;52.278;21.056;2022-12-10T02:40:48;3.80;73.23
67354;SHT30;54238;52.278;21.056;2022-12-10T02:43:35;3.95;72.97
67354;SHT30;54238;52.278;21.056;2022-12-10T02:46:03;4.06;72.63
67354;SHT30;54238;52.278;21.056;2022-12-10T02:48:37;4.09;72.62
67354;SHT30;54238;52.278;21.056;2022-12-10T02:51:07;4.11;72.60
67354;SHT30;54238;52.278;21.056;2022-12-10T02:53:43;4.07;72.54
67354;SHT30;54238;52.278;21.056;2022-12-10T03:07:09;3.55;73.54
67354;SHT30;54238;52.278;21.056;2022-12-10T03:09:51;3.52;73.62
67354;SHT30;54238;52.278;21.056;2022-12-10T03:12:34;3.54;73.69
67354;SHT30;54238;52.278;21.056;2022-12-10T03:15:10;3.58;73.71
67354;SHT30;54238;52.278;21.056;2022-12-10T03:17:43;3.66;73.71
67354;SHT30;54238;52.278;21.056;2022-12-10T03:20:16;3.70;73.65
67354;SHT30;54238;52.278;21.056;2022-12-10T03:22:46;3.76;73.51
67354;SHT30;54238;52.278;21.056;2022-12-10T03:25:19;3.80;73.37
67354;SHT30;54238;52.278;21.056;2022-12-10T03:27:53;3.76;73.23
67354;SHT30;54238;52.278;21.056;2022-12-10T03:30:30;3.66;73.36
67354;SHT30;54238;52.278;21.056;2022-12-10T03:33:03;3.54;73.38
67354;SHT30;54238;52.278;21.056;2022-12-10T03:35:35;3.40;73.62
67354;SHT30;54238;52.278;21.056;2022-12-10T03:38:10;3.28;73.93
67354;SHT30;54238;52.278;21.056;2022-12-10T03:40:42;3.19;74.16
67354;SHT30;54238;52.278;21.056;2022-12-10T03:43:14;3.09;74.36
67354;SHT30;54238;52.278;21.056;2022-12-10T03:45:44;3.00;74.67
67354;SHT30;54238;52.278;21.056;2022-12-10T03:48:12;3.00;74.81
67354;SHT30;54238;52.278;21.056;2022-12-10T03:50:41;3.05;74.94
67354;SHT30;54238;52.278;21.056;2022-12-10T03:53:11;3.13;74.85
67354;SHT30;54238;52.278;21.056;2022-12-10T03:55:38;3.17;74.70
67354;SHT30;54238;52.278;21.056;2022-12-10T03:58:05;3.18;74.65
67354;SHT30;54238;52.278;21.056;2022-12-10T04:00:36;3.24;74.75
67354;SHT30;54238;52.278;21.056;2022-12-10T04:03:03;3.29;74.59
67354;SHT30;54238;52.278;21.056;2022-12-10T04:05:30;3.32;74.42
67354;SHT30;54238;52.278;21.056;2022-12-10T04:07:57;3.31;74.40
67354;SHT30;54238;52.278;21.056;2022-12-10T04:10:25;3.31;74.40
67354;SHT30;54238;52.278;21.056;2022-12-10T04:12:57;3.33;74.50
67354;SHT30;54238;52.278;21.056;2022-12-10T04:15:45;3.36;74.46
67354;SHT30;54238;52.278;21.056;2022-12-10T04:18:31;3.42;74.31
67354;SHT30;54238;52.278;21.056;2022-12-10T04:21:01;3.43;74.20
67354;SHT30;54238;52.278;21.056;2022-12-10T04:23:53;3.44;74.27
67354;SHT30;54238;52.278;21.056;2022-12-10T04:26:39;3.39;74.33
67354;SHT30;54238;52.278;21.056;2022-12-10T04:29:19;3.32;74.46
67354;SHT30;54238;52.278;21.056;2022-12-10T04:31:54;3.24;74.53
67354;SHT30;54238;52.278;21.056;2022-12-10T04:34:22;3.16;74.69
67354;SHT30;54238;52.278;21.056;2022-12-10T04:36:51;3.08;74.85
67354;SHT30;54238;52.278;21.056;2022-12-10T04:39:23;2.97;75.04
67354;SHT30;54238;52.278;21.056;2022-12-10T04:41:54;2.88;75.31
67354;SHT30;54238;52.278;21.056;2022-12-10T04:44:24;2.87;75.55
67354;SHT30;54238;52.278;21.056;2022-12-10T04:46:52;2.91;75.59
67354;SHT30;54238;52.278;21.056;2022-12-10T04:49:19;2.94;75.53
67354;SHT30;54238;52.278;21.056;2022-12-10T04:51:52;3.01;75.59
67354;SHT30;54238;52.278;21.056;2022-12-10T04:54:24;3.09;75.51
67354;SHT30;54238;52.278;21.056;2022-12-10T04:56:59;3.22;75.46
67354;SHT30;54238;52.278;21.056;2022-12-10T04:59:31;3.34;75.13
67354;SHT30;54238;52.278;21.056;2022-12-10T05:01:59;3.46;74.77
67354;SHT30;54238;52.278;21.056;2022-12-10T05:04:31;3.49;74.54
67354;SHT30;54238;52.278;21.056;2022-12-10T05:06:58;3.46;74.51
67354;SHT30;54238;52.278;21.056;2022-12-10T05:09:28;3.41;74.45
67354;SHT30;54238;52.278;21.056;2022-12-10T05:11:55;3.33;74.37
67354;SHT30;54238;52.278;21.056;2022-12-10T05:14:27;3.21;74.44
67354;SHT30;54238;52.278;21.056;2022-12-10T05:16:57;3.11;74.58
67354;SHT30;54238;52.278;21.056;2022-12-10T05:19:27;3.04;74.70
67354;SHT30;54238;52.278;21.056;2022-12-10T05:21:56;2.99;74.80
67354;SHT30;54238;52.278;21.056;2022-12-10T05:24:42;2.99;74.97
67354;SHT30;54238;52.278;21.056;2022-12-10T05:27:09;2.98;74.97
67354;SHT30;54238;52.278;21.056;2022-12-10T05:29:36;2.98;74.96
67354;SHT30;54238;52.278;21.056;2022-12-10T05:32:03;3.01;75.00
67354;SHT30;54238;52.278;21.056;2022-12-10T05:34:31;3.07;74.99
67354;SHT30;54238;52.278;21.056;2022-12-10T05:36:58;3.17;74.80
67354;SHT30;54238;52.278;21.056;2022-12-10T05:39:26;3.26;74.57
67354;SHT30;54238;52.278;21.056;2022-12-10T05:41:55;3.37;74.34
67354;SHT30;54238;52.278;21.056;2022-12-10T05:44:22;3.46;74.17
67354;SHT30;54238;52.278;21.056;2022-12-10T05:46:51;3.47;73.91
67354;SHT30;54238;52.278;21.056;2022-12-10T05:49:27;3.41;73.71
67354;SHT30;54238;52.278;21.056;2022-12-10T05:51:56;3.32;73.79
67354;SHT30;54238;52.278;21.056;2022-12-10T05:54:25;3.24;73.90
67354;SHT30;54238;52.278;21.056;2022-12-10T05:56:55;3.18;74.07
67354;SHT30;54238;52.278;21.056;2022-12-10T05:59:22;3.09;74.12
67354;SHT30;54238;52.278;21.056;2022-12-10T06:01:49;3.00;74.36
67354;SHT30;54238;52.278;21.056;2022-12-10T06:04:19;2.99;74.53
67354;SHT30;54238;52.278;21.056;2022-12-10T06:06:48;3.06;74.55
67354;SHT30;54238;52.278;21.056;2022-12-10T06:09:17;3.17;74.36
67354;SHT30;54238;52.278;21.056;2022-12-10T06:11:44;3.30;74.18
67354;SHT30;54238;52.278;21.056;2022-12-10T06:14:18;3.39;73.89
67354;SHT30;54238;52.278;21.056;2022-12-10T06:16:45;3.40;73.76
67354;SHT30;54238;52.278;21.056;2022-12-10T06:19:19;3.33;73.72
67354;SHT30;54238;52.278;21.056;2022-12-10T06:21:53;3.25;73.83
67354;SHT30;54238;52.278;21.056;2022-12-10T06:24:24;3.18;73.89
67354;SHT30;54238;52.278;21.056;2022-12-10T06:26:55;3.11;74.12
67354;SHT30;54238;52.278;21.056;2022-12-10T06:29:22;3.05;74.28
67354;SHT30;54238;52.278;21.056;2022-12-10T06:31:51;2.99;74.40
67354;SHT30;54238;52.278;21.056;2022-12-10T06:34:23;2.93;74.53
67354;SHT30;54238;52.278;21.056;2022-12-10T06:36:50;2.90;74.67
67354;SHT30;54238;52.278;21.056;2022-12-10T06:39:18;2.87;74.81
67354;SHT30;54238;52.278;21.056;2022-12-10T06:41:47;2.84;74.91
67354;SHT30;54238;52.278;21.056;2022-12-10T06:44:19;2.82;75.02
67354;SHT30;54238;52.278;21.056;2022-12-10T06:46:46;2.81;75.18
67354;SHT30;54238;52.278;21.056;2022-12-10T06:49:13;2.82;75.37
67354;SHT30;54238;52.278;21.056;2022-12-10T06:51:40;2.85;75.36
67354;SHT30;54238;52.278;21.056;2022-12-10T06:54:09;2.87;75.37
67354;SHT30;54238;52.278;21.056;2022-12-10T06:56:36;2.86;75.32
67354;SHT30;54238;52.278;21.056;2022-12-10T06:59:04;2.85;75.45
67354;SHT30;54238;52.278;21.056;2022-12-10T07:01:37;2.84;75.59
67354;SHT30;54238;52.278;21.056;2022-12-10T07:04:12;2.87;75.64
67354;SHT30;54238;52.278;21.056;2022-12-10T07:06:39;2.89;75.60
67354;SHT30;54238;52.278;21.056;2022-12-10T07:09:09;2.93;75.65
67354;SHT30;54238;52.278;21.056;2022-12-10T07:11:39;3.04;75.52
67354;SHT30;54238;52.278;21.056;2022-12-10T07:14:11;3.12;75.41
67354;SHT30;54238;52.278;21.056;2022-12-10T07:16:47;3.16;75.37
67354;SHT30;54238;52.278;21.056;2022-12-10T07:19:19;3.22;75.24
67354;SHT30;54238;52.278;21.056;2022-12-10T07:21:49;3.24;75.19
67354;SHT30;54238;52.278;21.056;2022-12-10T07:24:18;3.31;75.14
67354;SHT30;54238;52.278;21.056;2022-12-10T07:26:46;3.34;74.91
67354;SHT30;54238;52.278;21.056;2022-12-10T07:29:18;3.37;74.94
67354;SHT30;54238;52.278;21.056;2022-12-10T07:31:50;3.41;74.93
67354;SHT30;54238;52.278;21.056;2022-12-10T07:34:25;3.47;74.88
67354;SHT30;54238;52.278;21.056;2022-12-10T07:36:55;3.55;74.72
67354;SHT30;54238;52.278;21.056;2022-12-10T07:39:22;3.63;74.51
67354;SHT30;54238;52.278;21.056;2022-12-10T07:41:54;3.70;74.30
67354;SHT30;54238;52.278;21.056;2022-12-10T07:44:22;3.75;74.15
67354;SHT30;54238;52.278;21.056;2022-12-10T07:46:54;3.73;74.12
67354;SHT30;54238;52.278;21.056;2022-12-10T07:49:24;3.65;74.11
67354;SHT30;54238;52.278;21.056;2022-12-10T07:51:53;3.53;74.20
67354;SHT30;54238;52.278;21.056;2022-12-10T07:54:23;3.46;74.50
67354;SHT30;54238;52.278;21.056;2022-12-10T07:56:52;3.39;74.63
67354;SHT30;54238;52.278;21.056;2022-12-10T07:59:21;3.31;74.78
67354;SHT30;54238;52.278;21.056;2022-12-10T08:01:48;3.28;74.94
67354;SHT30;54238;52.278;21.056;2022-12-10T08:04:18;3.30;75.05
67354;SHT30;54238;52.278;21.056;2022-12-10T08:06:47;3.33;75.02
67354;SHT30;54238;52.278;21.056;2022-12-10T08:09:15;3.34;75.05
67354;SHT30;54238;52.278;21.056;2022-12-10T08:11:45;3.34;75.02
67354;SHT30;54238;52.278;21.056;2022-12-10T08:14:14;3.31;75.09
67354;SHT30;54238;52.278;21.056;2022-12-10T08:16:44;3.30;75.16
67354;SHT30;54238;52.278;21.056;2022-12-10T08:19:16;3.29;75.23
67354;SHT30;54238;52.278;21.056;2022-12-10T08:21:43;3.30;75.31
67354;SHT30;54238;52.278;21.056;2022-12-10T08:24:13;3.28;75.31
67354;SHT30;54238;52.278;21.056;2022-12-10T08:26:40;3.27;75.34
67354;SHT30;54238;52.278;21.056;2022-12-10T08:29:12;3.25;75.40
67354;SHT30;54238;52.278;21.056;2022-12-10T08:31:43;3.25;75.47
67354;SHT30;54238;52.278;21.056;2022-12-10T08:34:14;3.25;75.49
67354;SHT30;54238;52.278;21.056;2022-12-10T08:36:44;3.24;75.51
67354;SHT30;54238;52.278;21.056;2022-12-10T08:39:12;3.23;75.60
67354;SHT30;54238;52.278;21.056;2022-12-10T08:41:45;3.23;75.61
67354;SHT30;54238;52.278;21.056;2022-12-10T08:44:15;3.22;75.67
67354;SHT30;54238;52.278;21.056;2022-12-10T08:46:46;3.24;75.74
67354;SHT30;54238;52.278;21.056;2022-12-10T08:49:13;3.26;75.72
67354;SHT30;54238;52.278;21.056;2022-12-10T08:51:46;3.27;75.70
67354;SHT30;54238;52.278;21.056;2022-12-10T08:54:20;3.27;75.69
67354;SHT30;54238;52.278;21.056;2022-12-10T08:56:49;3.28;75.71
67354;SHT30;54238;52.278;21.056;2022-12-10T08:59:20;3.28;75.76
67354;SHT30;54238;52.278;21.056;2022-12-10T09:01:48;3.29;75.79
67354;SHT30;54238;52.278;21.056;2022-12-10T09:04:15;3.30;75.81
67354;SHT30;54238;52.278;21.056;2022-12-10T09:06:47;3.35;75.81
67354;SHT30;54238;52.278;21.056;2022-12-10T09:09:14;3.40;75.76
67354;SHT30;54238;52.278;21.056;2022-12-10T09:11:43;3.43;75.52
67354;SHT30;54238;52.278;21.056;2022-12-10T09:14:14;3.45;75.55
67354;SHT30;54238;52.278;21.056;2022-12-10T09:16:42;3.52;75.59
67354;SHT30;54238;52.278;21.056;2022-12-10T09:19:18;3.61;75.47
67354;SHT30;54238;52.278;21.056;2022-12-10T09:21:45;3.70;75.26
67354;SHT30;54238;52.278;21.056;2022-12-10T09:24:19;3.78;75.10
67354;SHT30;54238;52.278;21.056;2022-12-10T09:26:51;3.82;74.93
67354;SHT30;54238;52.278;21.056;2022-12-10T09:29:18;3.86;74.84
67354;SHT30;54238;52.278;21.056;2022-12-10T09:31:50;3.88;74.70
67354;SHT30;54238;52.278;21.056;2022-12-10T09:34:23;3.91;74.61
67354;SHT30;54238;52.278;21.056;2022-12-10T09:36:50;3.89;74.52
67354;SHT30;54238;52.278;21.056;2022-12-10T09:39:19;3.89;74.63
67354;SHT30;54238;52.278;21.056;2022-12-10T09:41:54;3.93;74.50
67354;SHT30;54238;52.278;21.056;2022-12-10T09:53:20;4.12;73.82
67354;SHT30;54238;52.278;21.056;2022-12-10T09:55:50;4.05;73.94
67354;SHT30;54238;52.278;21.056;2022-12-10T09:58:22;3.97;73.95
67354;SHT30;54238;52.278;21.056;2022-12-10T10:00:57;3.86;74.19
67354;SHT30;54238;52.278;21.056;2022-12-10T10:03:42;3.81;74.45
67354;SHT30;54238;52.278;21.056;2022-12-10T10:06:12;3.81;74.39
67354;SHT30;54238;52.278;21.056;2022-12-10T10:08:46;3.88;74.33
67354;SHT30;54238;52.278;21.056;2022-12-10T10:11:26;3.95;74.12
67354;SHT30;54238;52.278;21.056;2022-12-10T10:14:00;3.99;73.95
67354;SHT30;54238;52.278;21.056;2022-12-10T10:19:38;4.08;73.90
67354;SHT30;54238;52.278;21.056;2022-12-10T10:22:08;4.14;73.75
67354;SHT30;54238;52.278;21.056;2022-12-10T10:24:41;4.21;73.57
67354;SHT30;54238;52.278;21.056;2022-12-10T10:27:23;4.26;73.42
67354;SHT30;54238;52.278;21.056;2022-12-10T10:29:57;4.26;73.30
67354;SHT30;54238;52.278;21.056;2022-12-10T10:35:18;4.17;73.42
67354;SHT30;54238;52.278;21.056;2022-12-10T10:37:58;4.15;73.51
67354;SHT30;54238;52.278;21.056;2022-12-10T10:40:42;4.09;73.60
67354;SHT30;54238;52.278;21.056;2022-12-10T10:43:21;4.07;73.60
67354;SHT30;54238;52.278;21.056;2022-12-10T10:46:01;4.09;73.63
67354;SHT30;54238;52.278;21.056;2022-12-10T10:48:37;4.13;73.55
67354;SHT30;54238;52.278;21.056;2022-12-10T10:53:43;4.11;73.35
67354;SHT30;54238;52.278;21.056;2022-12-10T10:56:25;4.12;73.44
67354;SHT30;54238;52.278;21.056;2022-12-10T11:01:51;4.19;73.31
67354;SHT30;54238;52.278;21.056;2022-12-10T11:07:05;4.26;73.17
67354;SHT30;54238;52.278;21.056;2022-12-10T11:09:53;4.24;73.20
67354;SHT30;54238;52.278;21.056;2022-12-10T11:12:27;4.18;73.22
67354;SHT30;54238;52.278;21.056;2022-12-10T11:17:49;4.09;73.36
67354;SHT30;54238;52.278;21.056;2022-12-10T11:22:52;3.96;73.27
67354;SHT30;54238;52.278;21.056;2022-12-10T11:28:33;3.90;73.57
67354;SHT30;54238;52.278;21.056;2022-12-10T11:32:03;3.91;73.78
67354;SHT30;54238;52.278;21.056;2022-12-10T11:40:52;3.91;73.83
67354;SHT30;54238;52.278;21.056;2022-12-10T12:03:55;3.92;73.08
67354;SHT30;54238;52.278;21.056;2022-12-10T12:18:06;3.80;73.36
67354;SHT30;54238;52.278;21.056;2022-12-10T12:20:48;3.87;73.29
67354;SHT30;54238;52.278;21.056;2022-12-10T12:31:37;4.12;72.38
67354;SHT30;54238;52.278;21.056;2022-12-10T12:37:24;4.08;72.23
67354;SHT30;54238;52.278;21.056;2022-12-10T12:51:23;3.71;73.23
67354;SHT30;54238;52.278;21.056;2022-12-10T12:53:58;3.57;73.49
67354;SHT30;54238;52.278;21.056;2022-12-10T13:05:04;3.94;73.11
67354;SHT30;54238;52.278;21.056;2022-12-10T13:07:43;4.04;72.93
67354;SHT30;54238;52.278;21.056;2022-12-10T13:10:42;4.10;72.64
67354;SHT30;54238;52.278;21.056;2022-12-10T13:24:43;3.77;73.13
67354;SHT30;54238;52.278;21.056;2022-12-10T13:32:43;3.77;73.17
67354;SHT30;54238;52.278;21.056;2022-12-10T13:35:25;3.83;73.07
67354;SHT30;54238;52.278;21.056;2022-12-10T13:38:17;3.89;72.79
67354;SHT30;54238;52.278;21.056;2022-12-10T13:40:58;3.94;72.68
67354;SHT30;54238;52.278;21.056;2022-12-10T13:43:59;3.97;72.51
67354;SHT30;54238;52.278;21.056;2022-12-10T13:49:53;3.88;72.50
67354;SHT30;54238;52.278;21.056;2022-12-10T13:52:25;3.78;72.58
67354;SHT30;54238;52.278;21.056;2022-12-10T13:55:07;3.70;72.63
67354;SHT30;54238;52.278;21.056;2022-12-10T14:00:52;3.53;72.81
67354;SHT30;54238;52.278;21.056;2022-12-10T14:06:34;3.50;72.95
67354;SHT30;54238;52.278;21.056;2022-12-10T14:09:13;3.47;72.92
67354;SHT30;54238;52.278;21.056;2022-12-10T14:12:10;3.48;72.95
67354;SHT30;54238;52.278;21.056;2022-12-10T14:15:07;3.55;72.98
67354;SHT30;54238;52.278;21.056;2022-12-10T14:17:44;3.67;72.75
67354;SHT30;54238;52.278;21.056;2022-12-10T14:20:17;3.75;72.43
67354;SHT30;54238;52.278;21.056;2022-12-10T14:22:54;3.78;72.21
67354;SHT30;54238;52.278;21.056;2022-12-10T14:26:14;3.78;72.10
67354;SHT30;54238;52.278;21.056;2022-12-10T14:28:59;3.74;72.03
67354;SHT30;54238;52.278;21.056;2022-12-10T14:31:48;3.65;72.08
67354;SHT30;54238;52.278;21.056;2022-12-10T14:34:23;3.59;72.19
67354;SHT30;54238;52.278;21.056;2022-12-10T14:36:58;3.52;72.20
67354;SHT30;54238;52.278;21.056;2022-12-10T14:39:32;3.44;72.31
67354;SHT30;54238;52.278;21.056;2022-12-10T14:42:12;3.38;72.36
67354;SHT30;54238;52.278;21.056;2022-12-10T14:44:56;3.35;72.47
67354;SHT30;54238;52.278;21.056;2022-12-10T14:47:37;3.42;72.52
67354;SHT30;54238;52.278;21.056;2022-12-10T14:50:12;3.52;72.45
67354;SHT30;54238;52.278;21.056;2022-12-10T14:52:52;3.65;72.24
67354;SHT30;54238;52.278;21.056;2022-12-10T14:55:21;3.71;72.09
67354;SHT30;54238;52.278;21.056;2022-12-10T15:00:31;3.63;72.00
67354;SHT30;54238;52.278;21.056;2022-12-10T15:03:09;3.58;72.04
67354;SHT30;54238;52.278;21.056;2022-12-10T15:05:52;3.49;72.00
67354;SHT30;54238;52.278;21.056;2022-12-10T15:08:24;3.33;72.19
67354;SHT30;54238;52.278;21.056;2022-12-10T15:10:58;3.24;72.43
67354;SHT30;54238;52.278;21.056;2022-12-10T15:16:13;3.19;72.46
67354;SHT30;54238;52.278;21.056;2022-12-10T15:18:47;3.24;72.34
67354;SHT30;54238;52.278;21.056;2022-12-10T15:21:20;3.27;72.13
67354;SHT30;54238;52.278;21.056;2022-12-10T15:24:09;3.30;71.99
67354;SHT30;54238;52.278;21.056;2022-12-10T15:26:54;3.36;71.88
67354;SHT30;54238;52.278;21.056;2022-12-10T15:31:59;3.38;71.51
67354;SHT30;54238;52.278;21.056;2022-12-10T15:34:53;3.29;71.60
67354;SHT30;54238;52.278;21.056;2022-12-10T15:38:19;3.21;71.70
67354;SHT30;54238;52.278;21.056;2022-12-10T15:40:50;3.12;71.91
67354;SHT30;54238;52.278;21.056;2022-12-10T15:43:25;3.07;72.01
67354;SHT30;54238;52.278;21.056;2022-12-10T15:45:59;2.98;72.02
67354;SHT30;54238;52.278;21.056;2022-12-10T15:48:31;2.95;72.09
67354;SHT30;54238;52.278;21.056;2022-12-10T15:51:01;2.95;72.13
67354;SHT30;54238;52.278;21.056;2022-12-10T15:53:34;2.99;72.10
67354;SHT30;54238;52.278;21.056;2022-12-10T15:56:09;3.03;71.97
67354;SHT30;54238;52.278;21.056;2022-12-10T15:58:39;3.07;72.05
67354;SHT30;54238;52.278;21.056;2022-12-10T16:01:13;3.13;71.91
67354;SHT30;54238;52.278;21.056;2022-12-10T16:03:42;3.17;71.83
67354;SHT30;54238;52.278;21.056;2022-12-10T16:06:12;3.23;71.68
67354;SHT30;54238;52.278;21.056;2022-12-10T16:08:39;3.23;71.56
67354;SHT30;54238;52.278;21.056;2022-12-10T16:14:15;3.18;71.63
67354;SHT30;54238;52.278;21.056;2022-12-10T16:16:44;3.15;71.63
67354;SHT30;54238;52.278;21.056;2022-12-10T16:19:16;3.11;72.19
67354;SHT30;54238;52.278;21.056;2022-12-10T16:21:46;3.13;72.13
67354;SHT30;54238;52.278;21.056;2022-12-10T16:24:17;3.11;71.96
67354;SHT30;54238;52.278;21.056;2022-12-10T16:26:44;3.02;71.94
67354;SHT30;54238;52.278;21.056;2022-12-10T16:29:14;2.97;72.11
67354;SHT30;54238;52.278;21.056;2022-12-10T16:31:42;2.95;72.20
67354;SHT30;54238;52.278;21.056;2022-12-10T16:34:09;2.97;72.20
67354;SHT30;54238;52.278;21.056;2022-12-10T16:36:39;3.03;72.17
67354;SHT30;54238;52.278;21.056;2022-12-10T16:39:08;3.12;72.07
67354;SHT30;54238;52.278;21.056;2022-12-10T16:41:35;3.22;71.84
67354;SHT30;54238;52.278;21.056;2022-12-10T16:44:05;3.28;71.65
67354;SHT30;54238;52.278;21.056;2022-12-10T16:46:32;3.28;71.61
67354;SHT30;54238;52.278;21.056;2022-12-10T16:48:59;3.27;71.63
67354;SHT30;54238;52.278;21.056;2022-12-10T16:51:29;3.24;71.63
67354;SHT30;54238;52.278;21.056;2022-12-10T16:53:59;3.19;71.64
67354;SHT30;54238;52.278;21.056;2022-12-10T16:56:29;3.13;71.78
67354;SHT30;54238;52.278;21.056;2022-12-10T16:58:58;3.08;71.81
67354;SHT30;54238;52.278;21.056;2022-12-10T17:01:26;3.01;71.88
67354;SHT30;54238;52.278;21.056;2022-12-10T17:03:55;2.95;72.00
67354;SHT30;54238;52.278;21.056;2022-12-10T17:06:27;2.95;72.03
67354;SHT30;54238;52.278;21.056;2022-12-10T17:08:59;2.94;72.11
67354;SHT30;54238;52.278;21.056;2022-12-10T17:11:38;2.98;72.00
67354;SHT30;54238;52.278;21.056;2022-12-10T17:16:52;3.08;71.88
67354;SHT30;54238;52.278;21.056;2022-12-10T17:19:35;3.17;71.66
67354;SHT30;54238;52.278;21.056;2022-12-10T17:22:05;3.20;71.51
67354;SHT30;54238;52.278;21.056;2022-12-10T17:24:36;3.24;71.57
67354;SHT30;54238;52.278;21.056;2022-12-10T17:27:06;3.26;71.36
67354;SHT30;54238;52.278;21.056;2022-12-10T17:29:45;3.22;71.30
67354;SHT30;54238;52.278;21.056;2022-12-10T17:32:21;3.12;71.34
67354;SHT30;54238;52.278;21.056;2022-12-10T17:34:54;3.03;71.54
67354;SHT30;54238;52.278;21.056;2022-12-10T17:37:24;2.95;71.68
67354;SHT30;54238;52.278;21.056;2022-12-10T17:39:56;2.88;71.74
67354;SHT30;54238;52.278;21.056;2022-12-10T17:42:28;2.85;71.82
67354;SHT30;54238;52.278;21.056;2022-12-10T17:44:55;2.88;71.90
67354;SHT30;54238;52.278;21.056;2022-12-10T17:47:31;2.98;71.82
67354;SHT30;54238;52.278;21.056;2022-12-10T17:50:02;3.11;71.55
67354;SHT30;54238;52.278;21.056;2022-12-10T17:52:36;3.19;72.22
67354;SHT30;54238;52.278;21.056;2022-12-10T17:55:06;3.22;71.83
67354;SHT30;54238;52.278;21.056;2022-12-10T17:57:38;3.16;71.52
67354;SHT30;54238;52.278;21.056;2022-12-10T18:00:13;3.11;71.70
67354;SHT30;54238;52.278;21.056;2022-12-10T18:02:45;3.05;71.65
67354;SHT30;54238;52.278;21.056;2022-12-10T18:05:15;3.00;71.79
67354;SHT30;54238;52.278;21.056;2022-12-10T18:07:45;2.94;71.80
67354;SHT30;54238;52.278;21.056;2022-12-10T18:10:16;2.87;71.97
67354;SHT30;54238;52.278;21.056;2022-12-10T18:12:53;2.81;72.03
67354;SHT30;54238;52.278;21.056;2022-12-10T18:15:25;2.73;72.22
67354;SHT30;54238;52.278;21.056;2022-12-10T18:17:58;2.70;72.50
67354;SHT30;54238;52.278;21.056;2022-12-10T18:20:33;2.66;72.64
67354;SHT30;54238;52.278;21.056;2022-12-10T18:23:04;2.63;72.79
67354;SHT30;54238;52.278;21.056;2022-12-10T18:25:35;2.63;72.98
67354;SHT30;54238;52.278;21.056;2022-12-10T18:30:54;2.58;73.01
67354;SHT30;54238;52.278;21.056;2022-12-10T18:33:24;2.56;73.09
67354;SHT30;54238;52.278;21.056;2022-12-10T18:35:51;2.56;73.17
67354;SHT30;54238;52.278;21.056;2022-12-10T18:38:20;2.59;73.14
67354;SHT30;54238;52.278;21.056;2022-12-10T18:40:50;2.61;73.20
67354;SHT30;54238;52.278;21.056;2022-12-10T18:43:20;2.66;73.02
67354;SHT30;54238;52.278;21.056;2022-12-10T18:45:47;2.78;72.87
67354;SHT30;54238;52.278;21.056;2022-12-10T18:48:17;2.87;72.65
67354;SHT30;54238;52.278;21.056;2022-12-10T18:50:48;2.97;72.51
67354;SHT30;54238;52.278;21.056;2022-12-10T18:53:15;3.06;72.27
67354;SHT30;54238;52.278;21.056;2022-12-10T18:55:47;3.07;72.05